createdAt,value
2022-10-14T00:01:06.040Z,89.30
2022-10-14T00:03:34.063Z,89.41
2022-10-14T00:06:04.497Z,88.53
2022-10-14T00:08:30.820Z,89.06
2022-10-14T00:10:57.257Z,89.03
2022-10-14T00:13:23.599Z,89.12
2022-10-14T00:15:49.915Z,89.34
2022-10-14T00:18:16.274Z,88.79
2022-10-14T00:20:42.610Z,89.47
2022-10-14T00:23:09.129Z,89.87
2022-10-14T00:25:38.130Z,89.25
2022-10-14T00:28:04.673Z,88.83
2022-10-14T00:30:30.999Z,89.14
2022-10-14T00:32:57.632Z,89.34
2022-10-14T00:35:23.977Z,89.89
2022-10-14T00:37:50.559Z,90.33
2022-10-14T00:40:17.023Z,90.40
2022-10-14T00:42:43.383Z,90.74
2022-10-14T00:45:15.250Z,90.88
2022-10-14T00:47:43.659Z,90.89
2022-10-14T00:50:12.827Z,90.42
2022-10-14T00:52:39.553Z,90.06
2022-10-14T00:55:24.019Z,89.83
2022-10-14T00:57:50.581Z,90.18
2022-10-14T01:00:19.156Z,90.30
2022-10-14T01:02:47.620Z,90.21
2022-10-14T01:05:15.900Z,89.96
2022-10-14T01:07:59.399Z,90.08
2022-10-14T01:10:41.410Z,90.07
2022-10-14T01:13:29.430Z,90.43
2022-10-14T01:16:14.689Z,90.08
2022-10-14T01:19:04.775Z,90.64
2022-10-14T01:21:51.115Z,90.85
2022-10-14T01:24:58.999Z,90.79
2022-10-14T01:28:09.155Z,91.25
2022-10-14T01:30:46.148Z,90.93
2022-10-14T01:33:26.720Z,90.36
2022-10-14T01:36:07.255Z,90.73
2022-10-14T01:38:41.318Z,90.78
2022-10-14T01:41:21.184Z,91.07
2022-10-14T01:43:50.419Z,91.09
2022-10-14T01:46:19.563Z,90.96
2022-10-14T01:48:51.158Z,91.12
2022-10-14T01:51:23.704Z,90.83
2022-10-14T01:53:57.216Z,90.74
2022-10-14T01:56:24.766Z,90.60
2022-10-14T01:58:53.978Z,90.35
2022-10-14T02:01:20.333Z,90.24
2022-10-14T02:03:47.659Z,90.10
2022-10-14T02:06:21.211Z,90.11
2022-10-14T02:09:02.709Z,90.30
2022-10-14T02:11:38.254Z,90.59
2022-10-14T02:14:14.252Z,90.57
2022-10-14T02:16:45.241Z,90.67
2022-10-14T02:19:28.353Z,90.79
2022-10-14T02:22:19.576Z,90.91
2022-10-14T02:24:53.267Z,90.90
2022-10-14T02:27:22.548Z,90.88
2022-10-14T02:29:50.535Z,91.02
2022-10-14T02:32:20.627Z,90.91
2022-10-14T02:34:50.893Z,91.23
2022-10-14T02:37:19.995Z,91.13
2022-10-14T02:39:54.653Z,90.86
2022-10-14T02:42:21.104Z,91.17
2022-10-14T02:44:58.944Z,90.93
2022-10-14T02:47:25.937Z,90.65
2022-10-14T02:49:52.830Z,90.73
2022-10-14T02:52:20.046Z,90.97
2022-10-14T02:54:46.748Z,90.87
2022-10-14T02:57:13.079Z,90.74
2022-10-14T02:59:42.279Z,90.84
2022-10-14T03:02:08.899Z,91.11
2022-10-14T03:04:35.753Z,90.90
2022-10-14T03:07:02.188Z,91.16
2022-10-14T03:09:28.575Z,90.79
2022-10-14T03:11:54.898Z,90.64
2022-10-14T03:14:21.310Z,90.75
2022-10-14T03:16:47.685Z,90.78
2022-10-14T03:19:14.123Z,90.62
2022-10-14T03:21:40.440Z,90.73
2022-10-14T03:24:06.975Z,91.20
2022-10-14T03:26:33.640Z,91.05
2022-10-14T03:29:00.021Z,90.75
2022-10-14T03:31:26.606Z,90.89
2022-10-14T03:33:53.201Z,90.76
2022-10-14T03:36:19.593Z,90.73
2022-10-14T03:38:45.924Z,90.89
2022-10-14T03:41:12.365Z,90.87
2022-10-14T03:43:38.708Z,90.93
2022-10-14T03:46:05.291Z,90.85
2022-10-14T03:48:31.707Z,90.83
2022-10-14T03:50:58.237Z,91.02
2022-10-14T03:53:24.686Z,90.81
2022-10-14T03:55:51.067Z,90.82
2022-10-14T03:58:17.451Z,90.62
2022-10-14T04:00:44.710Z,90.95
2022-10-14T04:03:11.068Z,91.35
2022-10-14T04:05:37.503Z,91.23
2022-10-14T04:08:04.125Z,91.42
2022-10-14T04:10:31.044Z,91.21
2022-10-14T04:12:57.580Z,90.91
2022-10-14T04:15:24.355Z,91.05
2022-10-14T04:17:50.791Z,91.11
2022-10-14T04:20:17.394Z,90.92
2022-10-14T04:22:43.958Z,90.95
2022-10-14T04:25:10.645Z,90.79
2022-10-14T04:27:37.120Z,90.84
2022-10-14T04:30:04.827Z,91.23
2022-10-14T04:32:31.267Z,91.46
2022-10-14T04:34:57.592Z,91.23
2022-10-14T04:37:23.965Z,91.35
2022-10-14T04:39:50.263Z,91.23
2022-10-14T04:42:16.585Z,91.34
2022-10-14T04:44:42.936Z,91.51
2022-10-14T04:47:09.263Z,91.59
2022-10-14T04:49:35.609Z,91.63
2022-10-14T04:52:01.913Z,91.34
2022-10-14T04:54:28.222Z,91.49
2022-10-14T04:56:54.588Z,91.80
2022-10-14T04:59:20.935Z,91.55
2022-10-14T05:01:47.336Z,91.46
2022-10-14T05:04:14.007Z,91.39
2022-10-14T05:06:40.726Z,91.06
2022-10-14T05:09:07.157Z,91.05
2022-10-14T05:11:33.651Z,91.20
2022-10-14T05:14:00.402Z,91.20
2022-10-14T05:16:26.915Z,90.77
2022-10-14T05:18:53.684Z,90.87
2022-10-14T05:21:19.993Z,90.69
2022-10-14T05:23:46.410Z,90.91
2022-10-14T05:26:12.732Z,90.88
2022-10-14T05:28:39.158Z,90.97
2022-10-14T05:31:06.185Z,90.89
2022-10-14T05:33:33.057Z,90.67
2022-10-14T05:35:59.890Z,90.73
2022-10-14T05:41:11.708Z,90.76
2022-10-14T05:43:38.017Z,91.16
2022-10-14T05:46:04.534Z,91.15
2022-10-14T05:48:32.129Z,91.17
2022-10-14T05:51:02.123Z,90.94
2022-10-14T05:53:28.607Z,90.90
2022-10-14T05:56:08.176Z,91.17
2022-10-14T05:58:34.791Z,91.13
2022-10-14T06:01:06.224Z,91.00
2022-10-14T06:03:33.343Z,90.91
2022-10-14T06:06:00.246Z,91.58
2022-10-14T06:08:27.803Z,91.33
2022-10-14T06:10:54.590Z,91.46
2022-10-14T06:13:22.065Z,91.37
2022-10-14T06:15:48.419Z,91.45
2022-10-14T06:18:14.738Z,91.56
2022-10-14T06:20:41.040Z,91.24
2022-10-14T06:23:07.334Z,91.68
2022-10-14T06:25:34.267Z,91.63
2022-10-14T06:28:05.087Z,91.62
2022-10-14T06:30:32.051Z,92.07
2022-10-14T06:32:58.388Z,93.03
2022-10-14T06:35:24.675Z,92.55
2022-10-14T06:37:50.996Z,92.81
2022-10-14T06:40:17.432Z,93.38
2022-10-14T06:42:43.886Z,93.60
2022-10-14T06:45:10.396Z,93.85
2022-10-14T06:47:36.743Z,93.71
2022-10-14T06:50:03.272Z,93.85
2022-10-14T06:52:29.586Z,94.02
2022-10-14T06:54:55.880Z,94.00
2022-10-14T06:57:22.200Z,93.88
2022-10-14T06:59:48.511Z,93.81
2022-10-14T07:02:14.911Z,94.21
2022-10-14T07:04:41.360Z,94.11
2022-10-14T07:07:08.505Z,93.82
2022-10-14T07:09:35.075Z,93.83
2022-10-14T07:12:01.788Z,93.74
2022-10-14T07:14:28.133Z,94.36
2022-10-14T07:16:54.833Z,94.11
2022-10-14T07:19:21.179Z,94.22
2022-10-14T07:21:47.627Z,93.81
2022-10-14T07:24:14.021Z,94.24
2022-10-14T07:26:40.521Z,94.29
2022-10-14T07:29:06.924Z,94.42
2022-10-14T07:31:33.984Z,93.99
2022-10-14T07:34:01.498Z,94.33
2022-10-14T07:36:28.464Z,94.84
2022-10-14T07:38:55.043Z,94.23
2022-10-14T07:41:24.616Z,94.46
2022-10-14T07:43:54.395Z,94.30
2022-10-14T07:46:29.467Z,93.79
2022-10-14T07:48:57.864Z,94.08
2022-10-14T07:51:25.189Z,94.43
2022-10-14T07:53:52.919Z,94.28
2022-10-14T07:56:19.408Z,94.54
2022-10-14T07:58:46.528Z,94.71
2022-10-14T08:01:15.462Z,94.00
2022-10-14T08:03:42.877Z,93.09
2022-10-14T08:06:09.413Z,93.09
2022-10-14T08:08:35.876Z,93.01
2022-10-14T08:11:11.646Z,93.32
2022-10-14T08:13:43.268Z,93.62
2022-10-14T08:16:14.044Z,93.16
2022-10-14T08:18:40.937Z,92.77
2022-10-14T08:21:07.268Z,92.76
2022-10-14T08:23:33.794Z,92.86
2022-10-14T08:26:00.320Z,92.69
2022-10-14T08:28:26.710Z,92.74
2022-10-14T08:30:53.433Z,92.55
2022-10-14T08:33:20.053Z,92.41
2022-10-14T08:35:50.224Z,92.23
2022-10-14T08:38:24.670Z,92.08
2022-10-14T08:41:12.623Z,91.68
2022-10-14T08:44:07.828Z,91.57
2022-10-14T08:46:59.291Z,91.61
2022-10-14T08:49:28.416Z,91.36
2022-10-14T08:52:18.188Z,91.36
2022-10-14T08:54:48.224Z,91.63
2022-10-14T08:57:19.110Z,91.96
2022-10-14T08:59:45.567Z,91.47
2022-10-14T09:02:33.838Z,91.13
2022-10-14T09:05:02.091Z,90.95
2022-10-14T09:07:30.597Z,91.22
2022-10-14T09:10:06.842Z,90.88
2022-10-14T09:12:35.563Z,91.19
2022-10-14T09:15:22.366Z,90.63
2022-10-14T09:17:54.813Z,91.09
2022-10-14T09:20:24.641Z,91.48
2022-10-14T09:22:59.776Z,91.13
2022-10-14T09:25:26.100Z,91.15
2022-10-14T09:27:52.665Z,91.71
2022-10-14T09:30:19.210Z,91.40
2022-10-14T09:32:53.041Z,91.06
2022-10-14T09:35:42.039Z,91.13
2022-10-14T09:38:09.436Z,91.31
2022-10-14T09:40:40.574Z,91.27
2022-10-14T09:43:16.839Z,91.21
2022-10-14T09:45:50.341Z,91.16
2022-10-14T09:48:42.822Z,91.47
2022-10-14T09:51:17.987Z,91.92
2022-10-14T09:53:48.949Z,91.58
2022-10-14T09:56:17.287Z,92.00
2022-10-14T09:58:50.958Z,91.59
2022-10-14T10:01:20.749Z,91.47
2022-10-14T10:03:48.946Z,91.66
2022-10-14T10:06:22.607Z,91.93
2022-10-14T10:09:01.259Z,91.99
2022-10-14T10:11:37.489Z,91.54
2022-10-14T10:14:25.387Z,91.65
2022-10-14T10:17:12.690Z,91.55
2022-10-14T10:19:43.096Z,91.27
2022-10-14T10:22:24.622Z,91.50
2022-10-14T10:25:12.067Z,91.80
2022-10-14T10:27:46.768Z,91.96
2022-10-14T10:30:22.433Z,92.25
2022-10-14T10:33:16.928Z,92.48
2022-10-14T10:35:58.272Z,92.85
2022-10-14T10:38:55.654Z,92.52
2022-10-14T10:41:43.766Z,92.87
2022-10-14T10:44:26.625Z,93.04
2022-10-14T10:47:17.988Z,93.21
2022-10-14T10:50:10.002Z,93.54
2022-10-14T10:53:18.522Z,94.25
2022-10-14T10:56:07.457Z,94.69
2022-10-14T10:58:58.919Z,95.34
2022-10-14T11:01:38.668Z,95.79
2022-10-14T11:04:33.265Z,94.83
2022-10-14T11:07:26.963Z,95.45
2022-10-14T11:10:42.597Z,95.59
2022-10-14T11:13:51.274Z,96.92
2022-10-14T11:16:33.839Z,96.23
2022-10-14T11:19:14.716Z,96.72
2022-10-14T11:21:56.258Z,97.33
2022-10-14T11:24:54.409Z,97.18
2022-10-14T11:27:31.892Z,97.29
2022-10-14T11:30:14.239Z,95.96
2022-10-14T11:32:52.388Z,96.80
2022-10-14T11:38:07.246Z,96.28
2022-10-14T11:40:49.862Z,95.04
2022-10-14T11:43:36.286Z,95.11
2022-10-14T11:46:16.181Z,95.10
2022-10-14T11:48:48.058Z,95.09
2022-10-14T11:51:57.928Z,94.20
2022-10-14T11:54:47.345Z,94.60
2022-10-14T11:57:35.023Z,94.57
2022-10-14T12:00:39.037Z,94.46
2022-10-14T12:03:43.838Z,94.86
2022-10-14T12:06:12.657Z,94.50
2022-10-14T12:09:19.130Z,94.69
2022-10-14T12:12:17.735Z,94.91
2022-10-14T12:14:51.415Z,94.50
2022-10-14T12:17:27.595Z,95.93
2022-10-14T12:19:55.117Z,95.79
2022-10-14T12:22:25.824Z,96.66
2022-10-14T12:24:55.285Z,98.07
2022-10-14T12:27:24.425Z,98.29
2022-10-14T12:29:52.634Z,97.81
2022-10-14T12:32:28.180Z,97.49
2022-10-14T12:34:56.898Z,97.38
2022-10-14T12:37:31.716Z,98.59
2022-10-14T12:40:07.417Z,98.87
2022-10-14T12:42:51.138Z,97.57
2022-10-14T12:45:21.727Z,97.32
2022-10-14T12:48:02.435Z,97.87
2022-10-14T12:50:34.556Z,97.95
2022-10-14T12:53:35.342Z,97.34
2022-10-14T12:56:04.846Z,97.86
2022-10-14T12:58:42.593Z,97.21
2022-10-14T13:01:23.473Z,97.92
2022-10-14T13:07:44.016Z,97.63
2022-10-14T13:10:35.653Z,97.26
2022-10-14T13:13:47.899Z,96.67
2022-10-14T13:16:25.888Z,96.41
2022-10-14T13:18:53.646Z,96.92
2022-10-14T13:21:35.283Z,96.52
2022-10-14T13:24:06.482Z,96.42
2022-10-14T13:26:38.847Z,95.84
2022-10-14T13:29:17.429Z,95.94
2022-10-14T13:32:10.055Z,95.73
2022-10-14T13:34:53.939Z,95.31
2022-10-14T13:37:35.803Z,95.31
2022-10-14T13:42:51.781Z,95.27
2022-10-14T13:45:22.242Z,95.31
2022-10-14T13:47:49.834Z,95.30
2022-10-14T13:50:23.023Z,96.32
2022-10-14T13:53:00.786Z,96.46
2022-10-14T13:55:27.455Z,96.79
2022-10-14T13:58:13.007Z,96.56
2022-10-14T14:00:50.149Z,97.43
2022-10-14T14:03:28.646Z,97.36
2022-10-14T14:05:56.763Z,98.45
2022-10-14T14:08:41.928Z,99.18
2022-10-14T14:11:17.728Z,100.00
2022-10-14T14:14:00.424Z,100.00
2022-10-14T14:16:31.881Z,99.88
2022-10-14T14:19:13.844Z,99.72
2022-10-14T14:21:40.403Z,99.43
2022-10-14T14:24:16.583Z,99.11
2022-10-14T14:26:42.943Z,99.21
2022-10-14T14:29:21.272Z,99.49
2022-10-14T14:32:06.128Z,98.93
2022-10-14T14:34:35.658Z,99.84
2022-10-14T14:37:23.499Z,98.96
2022-10-14T14:40:03.306Z,98.37
2022-10-14T14:42:40.034Z,99.34
2022-10-14T14:45:22.546Z,98.71
2022-10-14T14:47:51.372Z,99.17
2022-10-14T14:50:31.208Z,98.86
2022-10-14T14:53:03.267Z,99.59
2022-10-14T14:55:47.759Z,98.84
2022-10-14T14:58:26.366Z,98.57
2022-10-14T15:00:54.724Z,99.08
2022-10-14T15:03:24.891Z,99.33
2022-10-14T15:05:59.731Z,98.98
2022-10-14T15:08:29.756Z,100.00
2022-10-14T15:10:57.854Z,99.99
2022-10-14T15:13:38.635Z,98.91
2022-10-14T15:16:05.903Z,99.79
2022-10-14T15:18:32.565Z,98.78
2022-10-14T15:21:07.192Z,98.50
2022-10-14T15:23:42.821Z,98.28
2022-10-14T15:26:30.232Z,98.16
2022-10-14T15:29:26.119Z,98.74
2022-10-14T15:32:01.301Z,99.07
2022-10-14T15:34:28.128Z,99.33
2022-10-14T15:36:54.709Z,99.28
2022-10-14T15:39:21.861Z,99.25
2022-10-14T15:41:48.884Z,98.94
2022-10-14T15:44:15.478Z,98.38
2022-10-14T15:47:02.501Z,97.83
2022-10-14T15:49:47.372Z,97.51
2022-10-14T15:52:15.880Z,98.29
2022-10-14T15:54:42.855Z,98.85
2022-10-14T15:57:12.492Z,98.86
2022-10-14T15:59:42.168Z,98.83
2022-10-14T16:02:25.117Z,98.49
2022-10-14T16:05:18.359Z,98.94
2022-10-14T16:07:38.879Z,99.10
2022-10-14T16:10:07.355Z,98.36
2022-10-14T16:12:33.831Z,97.82
2022-10-14T16:15:01.830Z,97.72
2022-10-14T16:17:28.399Z,97.52
2022-10-14T16:19:54.746Z,98.30
2022-10-14T16:22:21.071Z,97.94
2022-10-14T16:24:47.445Z,98.27
2022-10-14T16:27:13.746Z,98.58
2022-10-14T16:29:40.105Z,98.52
2022-10-14T16:32:06.638Z,98.51
2022-10-14T16:34:32.985Z,98.37
2022-10-14T16:36:59.293Z,98.37
2022-10-14T16:39:25.609Z,98.53
2022-10-14T16:41:51.954Z,98.27
2022-10-14T16:44:24.580Z,98.20
2022-10-14T16:47:11.479Z,98.26
2022-10-14T16:49:38.950Z,97.95
2022-10-14T16:52:06.516Z,98.52
2022-10-14T16:54:33.086Z,99.09
2022-10-14T16:56:59.688Z,98.61
2022-10-14T16:59:28.356Z,98.46
2022-10-14T17:01:54.954Z,98.67
2022-10-14T17:04:21.491Z,98.91
2022-10-14T17:06:47.953Z,99.04
2022-10-14T17:09:15.784Z,98.77
2022-10-14T17:11:42.416Z,98.47
2022-10-14T17:14:12.278Z,98.01
2022-10-14T17:16:38.927Z,98.37
2022-10-14T17:19:05.870Z,97.87
2022-10-14T17:21:32.418Z,97.20
2022-10-14T17:24:02.940Z,97.60
2022-10-14T17:26:31.424Z,97.48
2022-10-14T17:28:58.288Z,97.45
2022-10-14T17:31:25.562Z,97.37
2022-10-14T17:33:52.347Z,97.30
2022-10-14T17:36:33.210Z,97.42
2022-10-14T17:39:00.042Z,97.99
2022-10-14T17:41:28.609Z,97.97
2022-10-14T17:43:57.082Z,98.16
2022-10-14T17:46:24.907Z,98.38
2022-10-14T17:48:53.450Z,98.49
2022-10-14T17:51:23.414Z,98.39
2022-10-14T17:53:55.145Z,98.28
2022-10-14T17:56:21.711Z,98.02
2022-10-14T17:58:52.385Z,97.62
2022-10-14T18:01:21.560Z,97.99
2022-10-14T18:03:59.167Z,97.90
2022-10-14T18:06:30.407Z,98.10
2022-10-14T18:09:01.051Z,98.43
2022-10-14T18:11:35.407Z,98.10
2022-10-14T18:14:15.418Z,97.95
2022-10-14T18:16:43.689Z,98.50
2022-10-14T18:19:15.860Z,98.47
2022-10-14T18:21:43.273Z,98.80
2022-10-14T18:24:11.072Z,98.60
2022-10-14T18:26:39.387Z,98.38
2022-10-14T18:29:05.841Z,98.45
2022-10-14T18:31:32.499Z,98.82
2022-10-14T18:34:01.177Z,98.42
2022-10-14T18:36:30.223Z,98.25
2022-10-14T18:38:59.115Z,97.90
2022-10-14T18:41:25.873Z,97.87
2022-10-14T18:43:52.412Z,97.85
2022-10-14T18:46:21.156Z,97.94
2022-10-14T18:48:51.174Z,97.48
2022-10-14T18:51:20.989Z,97.64
2022-10-14T18:53:48.506Z,98.00
2022-10-14T18:56:17.690Z,98.05
2022-10-14T18:58:45.865Z,98.08
2022-10-14T19:01:14.489Z,98.11
2022-10-14T19:03:41.701Z,98.18
2022-10-14T19:06:10.674Z,98.13
2022-10-14T19:08:44.429Z,98.35
2022-10-14T19:11:24.396Z,98.61
2022-10-14T19:14:01.905Z,98.71
2022-10-14T19:16:30.855Z,98.49
2022-10-14T19:18:59.753Z,98.78
2022-10-14T19:21:29.868Z,98.73
2022-10-14T19:23:57.927Z,98.41
2022-10-14T19:26:26.571Z,97.61
2022-10-14T19:28:53.416Z,97.15
2022-10-14T19:31:22.611Z,97.57
2022-10-14T19:33:48.985Z,97.13
2022-10-14T19:36:17.562Z,97.10
2022-10-14T19:38:54.751Z,97.33
2022-10-14T19:41:21.197Z,97.04
2022-10-14T19:43:47.625Z,96.93
2022-10-14T19:46:14.332Z,96.96
2022-10-14T19:48:40.706Z,97.11
2022-10-14T19:51:10.944Z,96.85
2022-10-14T19:53:38.525Z,96.97
2022-10-14T19:56:09.507Z,97.53
2022-10-14T19:58:38.602Z,97.81
2022-10-14T20:01:17.996Z,97.74
2022-10-14T20:03:44.535Z,98.16
2022-10-14T20:06:12.984Z,97.54
2022-10-14T20:08:39.637Z,97.89
2022-10-14T20:11:08.387Z,97.93
2022-10-14T20:13:35.172Z,97.24
2022-10-14T20:16:02.571Z,97.00
2022-10-14T20:18:29.930Z,97.18
2022-10-14T20:20:57.303Z,97.05
2022-10-14T20:23:25.176Z,96.96
2022-10-14T20:25:51.842Z,97.16
2022-10-14T20:28:21.371Z,96.96
2022-10-14T20:30:48.223Z,96.97
2022-10-14T20:33:14.814Z,96.92
2022-10-14T20:35:41.318Z,97.29
2022-10-14T20:38:07.659Z,97.83
2022-10-14T20:40:35.425Z,97.73
2022-10-14T20:43:02.855Z,97.41
2022-10-14T20:45:29.489Z,96.70
2022-10-14T20:47:55.856Z,97.02
2022-10-14T20:50:22.760Z,96.63
2022-10-14T20:52:49.244Z,96.87
2022-10-14T20:55:15.813Z,97.10
2022-10-14T20:57:42.326Z,97.20
2022-10-14T21:00:09.910Z,97.50
2022-10-14T21:02:36.285Z,97.24
2022-10-14T21:05:02.870Z,97.17
2022-10-14T21:07:29.284Z,97.44
2022-10-14T21:09:55.761Z,97.20
2022-10-14T21:12:22.505Z,96.92
2022-10-14T21:14:49.481Z,96.91
2022-10-14T21:17:15.910Z,97.00
2022-10-14T21:19:42.227Z,97.04
2022-10-14T21:22:09.232Z,97.08
2022-10-14T21:24:36.246Z,96.89
2022-10-14T21:27:02.752Z,96.73
2022-10-14T21:29:29.161Z,96.24
2022-10-14T21:31:55.519Z,96.25
2022-10-14T21:34:24.654Z,96.58
2022-10-14T21:36:50.980Z,96.79
2022-10-14T21:39:18.134Z,96.63
2022-10-14T21:41:45.018Z,96.67
2022-10-14T21:44:15.713Z,96.79
2022-10-14T21:46:42.043Z,97.00
2022-10-14T21:49:10.134Z,96.99
2022-10-14T21:51:37.231Z,96.91
2022-10-14T21:54:04.242Z,97.03
2022-10-14T21:56:30.809Z,96.90
2022-10-14T21:58:57.326Z,97.02
2022-10-14T22:01:27.254Z,96.92
2022-10-14T22:03:57.887Z,96.69
2022-10-14T22:06:25.090Z,96.67
2022-10-14T22:08:53.701Z,96.57
2022-10-14T22:11:37.350Z,96.30
2022-10-14T22:14:05.716Z,96.59
2022-10-14T22:16:32.118Z,96.55
2022-10-14T22:19:01.133Z,96.75
2022-10-14T22:21:29.532Z,96.94
2022-10-14T22:23:56.097Z,96.84
2022-10-14T22:26:24.461Z,97.07
2022-10-14T22:29:04.478Z,97.01
2022-10-14T22:31:34.957Z,96.59
2022-10-14T22:34:04.288Z,96.75
2022-10-14T22:36:31.612Z,96.94
2022-10-14T22:38:59.552Z,96.99
2022-10-14T22:41:29.821Z,97.26
2022-10-14T22:43:59.494Z,96.82
2022-10-14T22:46:28.435Z,96.87
2022-10-14T22:48:58.684Z,97.08
2022-10-14T22:51:30.173Z,97.24
2022-10-14T22:53:56.597Z,97.01
2022-10-14T22:56:26.001Z,96.63
2022-10-14T22:58:57.312Z,96.68
2022-10-14T23:01:25.555Z,95.96
2022-10-14T23:03:51.866Z,95.99
2022-10-14T23:06:18.175Z,95.87
2022-10-14T23:08:44.708Z,96.17
2022-10-14T23:11:19.368Z,95.94
2022-10-14T23:13:45.890Z,96.21
2022-10-14T23:16:18.716Z,96.25
2022-10-14T23:18:46.078Z,96.20
2022-10-14T23:21:16.975Z,96.14
2022-10-14T23:23:44.662Z,96.43
2022-10-14T23:26:13.174Z,96.37
2022-10-14T23:28:40.336Z,96.02
2022-10-14T23:31:15.334Z,96.07
2022-10-14T23:33:42.274Z,95.67
2022-10-14T23:36:11.466Z,95.87
2022-10-14T23:38:38.310Z,96.33
2022-10-14T23:41:05.894Z,96.28
2022-10-14T23:43:32.848Z,96.20
2022-10-14T23:45:59.423Z,96.36
2022-10-14T23:48:26.158Z,96.16
2022-10-14T23:50:52.689Z,95.77
2022-10-14T23:53:19.146Z,95.92
2022-10-14T23:55:45.715Z,95.55
2022-10-14T23:58:12.631Z,95.59
